TimeAKST,TemperatureF,Dew PointF,Humidity,Sea Level PressureIn,VisibilityMPH,Wind Direction,Wind SpeedMPH,Gust SpeedMPH,PrecipitationIn,Events,Conditions,WindDirDegrees,DateUTC
12:16 AM,33.8,30.2,87,29.87,10.0,SSE,5.8,-,N/A,,Overcast,160,2013-02-19 09:16:00
12:36 AM,33.8,30.2,87,29.88,10.0,South,5.8,-,N/A,,Overcast,170,2013-02-19 09:36:00
12:56 AM,33.8,30.2,87,29.88,10.0,SSE,3.5,-,N/A,,Overcast,150,2013-02-19 09:56:00
1:16 AM,33.8,30.2,87,29.89,10.0,SSE,5.8,-,N/A,,Overcast,150,2013-02-19 10:16:00
1:36 AM,33.8,30.2,87,29.90,10.0,SSE,4.6,-,N/A,,Overcast,160,2013-02-19 10:36:00
1:56 AM,35.6,30.2,81,29.90,10.0,SE,5.8,-,N/A,,Overcast,130,2013-02-19 10:56:00
2:16 AM,35.6,30.2,81,29.91,10.0,SE,4.6,-,N/A,,Overcast,130,2013-02-19 11:16:00
2:36 AM,35.6,32.0,87,29.90,10.0,ESE,5.8,-,N/A,,Overcast,110,2013-02-19 11:36:00
2:56 AM,35.6,32.0,87,29.91,10.0,ESE,4.6,-,N/A,,Overcast,120,2013-02-19 11:56:00
3:16 AM,35.6,32.0,87,29.91,10.0,ESE,5.8,-,N/A,,Overcast,120,2013-02-19 12:16:00
3:36 AM,35.6,32.0,87,29.91,10.0,East,5.8,-,N/A,,Overcast,100,2013-02-19 12:36:00
3:56 AM,35.6,30.2,81,29.91,10.0,SE,5.8,-,N/A,,Overcast,140,2013-02-19 12:56:00
4:16 AM,35.6,30.2,81,29.91,10.0,SE,3.5,-,N/A,,Overcast,130,2013-02-19 13:16:00
4:36 AM,35.6,32.0,87,29.91,10.0,East,5.8,-,N/A,,Overcast,100,2013-02-19 13:36:00
4:56 AM,35.6,32.0,87,29.91,10.0,ESE,6.9,-,N/A,,Overcast,120,2013-02-19 13:56:00
5:16 AM,35.6,32.0,87,29.90,10.0,East,6.9,-,N/A,,Overcast,100,2013-02-19 14:16:00
5:36 AM,35.6,32.0,87,29.90,10.0,East,6.9,-,N/A,,Overcast,100,2013-02-19 14:36:00
5:56 AM,35.6,30.2,81,29.91,10.0,SE,4.6,-,N/A,,Mostly Cloudy,130,2013-02-19 14:56:00
6:16 AM,35.6,30.2,81,29.92,10.0,SSE,3.5,-,N/A,,Mostly Cloudy,160,2013-02-19 15:16:00
6:36 AM,35.6,32.0,87,29.93,10.0,SSE,4.6,-,N/A,,Mostly Cloudy,150,2013-02-19 15:36:00
6:56 AM,35.6,30.2,81,29.93,10.0,SE,5.8,-,N/A,,Overcast,140,2013-02-19 15:56:00
7:16 AM,35.6,30.2,81,29.95,10.0,SSE,3.5,-,N/A,,Overcast,160,2013-02-19 16:16:00
7:36 AM,35.6,30.2,81,29.96,10.0,Calm,Calm,-,N/A,,Overcast,0,2013-02-19 16:36:00
7:56 AM,35.6,30.2,81,29.95,10.0,SE,3.5,-,N/A,,Overcast,140,2013-02-19 16:56:00
8:16 AM,35.6,32.0,87,29.94,10.0,ESE,8.1,-,N/A,,Overcast,110,2013-02-19 17:16:00
8:36 AM,35.6,32.0,87,29.93,10.0,East,6.9,-,N/A,,Overcast,100,2013-02-19 17:36:00
8:56 AM,35.6,32.0,87,29.93,10.0,ESE,8.1,-,N/A,,Mostly Cloudy,110,2013-02-19 17:56:00
9:16 AM,37.4,32.0,81,29.92,10.0,SE,9.2,-,N/A,,Mostly Cloudy,130,2013-02-19 18:16:00
9:36 AM,37.4,33.8,87,29.93,10.0,ESE,8.1,-,N/A,,Mostly Cloudy,110,2013-02-19 18:36:00
9:56 AM,37.4,33.8,87,29.94,10.0,ESE,6.9,-,N/A,,Mostly Cloudy,110,2013-02-19 18:56:00
10:16 AM,37.4,33.8,87,29.94,10.0,ESE,6.9,-,N/A,,Mostly Cloudy,110,2013-02-19 19:16:00
10:36 AM,37.4,32.0,81,29.94,10.0,East,6.9,-,N/A,,Mostly Cloudy,100,2013-02-19 19:36:00
10:56 AM,37.4,33.8,87,29.94,10.0,East,8.1,-,N/A,,Mostly Cloudy,90,2013-02-19 19:56:00
11:16 AM,37.4,33.8,87,29.93,10.0,East,9.2,-,N/A,,Mostly Cloudy,100,2013-02-19 20:16:00
11:36 AM,39.2,33.8,81,29.93,10.0,ESE,8.1,-,N/A,,Mostly Cloudy,110,2013-02-19 20:36:00
11:56 AM,39.2,33.8,81,29.93,10.0,East,8.1,-,N/A,,Mostly Cloudy,100,2013-02-19 20:56:00
12:16 PM,39.2,33.8,81,29.93,10.0,ESE,8.1,-,N/A,,Mostly Cloudy,110,2013-02-19 21:16:00
12:36 PM,39.2,33.8,81,29.92,10.0,East,6.9,-,N/A,,Mostly Cloudy,90,2013-02-19 21:36:00
12:56 PM,39.2,33.8,81,29.91,10.0,East,11.5,-,N/A,,Overcast,100,2013-02-19 21:56:00
1:16 PM,39.2,33.8,81,29.91,10.0,ESE,8.1,-,N/A,,Overcast,110,2013-02-19 22:16:00
1:36 PM,41.0,33.8,76,29.91,10.0,SSE,4.6,-,N/A,,Overcast,150,2013-02-19 22:36:00
1:56 PM,41.0,33.8,76,29.91,10.0,SSE,8.1,-,N/A,,Overcast,160,2013-02-19 22:56:00
2:16 PM,42.8,33.8,70,29.91,10.0,ESE,6.9,-,N/A,,Overcast,110,2013-02-19 23:16:00
3:16 PM,41.0,33.8,76,29.90,10.0,SSE,3.5,-,N/A,,Mostly Cloudy,160,2013-02-20 00:16:00
3:36 PM,41.0,33.8,76,29.89,10.0,East,10.4,-,N/A,,Mostly Cloudy,90,2013-02-20 00:36:00
3:56 PM,39.2,33.8,81,29.88,10.0,East,11.5,-,N/A,,Mostly Cloudy,90,2013-02-20 00:56:00
4:16 PM,41.0,32.0,70,29.88,10.0,East,8.1,-,N/A,,Mostly Cloudy,90,2013-02-20 01:16:00
4:36 PM,41.0,32.0,70,29.87,10.0,Calm,Calm,-,N/A,,Mostly Cloudy,0,2013-02-20 01:36:00
4:56 PM,41.0,30.2,65,29.86,10.0,ESE,5.8,-,N/A,,Mostly Cloudy,120,2013-02-20 01:56:00
5:16 PM,41.0,30.2,65,29.85,10.0,SE,12.7,16.1,N/A,,Mostly Cloudy,130,2013-02-20 02:16:00
5:36 PM,41.0,32.0,70,29.85,10.0,SE,11.5,-,N/A,,Mostly Cloudy,140,2013-02-20 02:36:00
5:56 PM,41.0,32.0,70,29.84,10.0,East,12.7,-,N/A,,Mostly Cloudy,100,2013-02-20 02:56:00
6:16 PM,41.0,30.2,65,29.84,10.0,SSE,8.1,-,N/A,,Mostly Cloudy,150,2013-02-20 03:16:00
6:36 PM,39.2,30.2,70,29.83,10.0,SE,9.2,-,N/A,,Mostly Cloudy,130,2013-02-20 03:36:00
6:56 PM,39.2,32.0,75,29.83,10.0,SE,10.4,-,N/A,,Mostly Cloudy,140,2013-02-20 03:56:00
7:16 PM,39.2,30.2,70,29.82,10.0,SE,13.8,18.4,N/A,,Mostly Cloudy,130,2013-02-20 04:16:00
7:36 PM,39.2,32.0,75,29.81,10.0,ESE,13.8,19.6,N/A,,Mostly Cloudy,120,2013-02-20 04:36:00
7:56 PM,39.2,33.8,81,29.81,10.0,ESE,12.7,18.4,N/A,,Mostly Cloudy,120,2013-02-20 04:56:00
8:16 PM,39.2,32.0,75,29.80,10.0,ESE,11.5,17.3,N/A,,Mostly Cloudy,120,2013-02-20 05:16:00
8:36 PM,39.2,32.0,75,29.79,10.0,ESE,11.5,17.3,N/A,,Mostly Cloudy,120,2013-02-20 05:36:00
8:56 PM,39.2,33.8,81,29.78,10.0,ESE,12.7,-,N/A,,Overcast,120,2013-02-20 05:56:00
9:16 PM,39.2,32.0,75,29.77,10.0,ESE,16.1,19.6,N/A,,Overcast,120,2013-02-20 06:16:00
9:36 PM,39.2,33.8,81,29.76,10.0,ESE,15.0,20.7,N/A,,Overcast,110,2013-02-20 06:36:00
9:56 PM,39.2,30.2,70,29.75,10.0,SE,13.8,21.9,N/A,,Overcast,130,2013-02-20 06:56:00
10:16 PM,39.2,30.2,70,29.74,10.0,SE,15.0,19.6,N/A,,Overcast,130,2013-02-20 07:16:00
10:36 PM,39.2,30.2,70,29.73,10.0,SE,15.0,-,N/A,,Overcast,130,2013-02-20 07:36:00
10:56 PM,39.2,33.8,81,29.73,10.0,ESE,9.2,-,N/A,,Overcast,110,2013-02-20 07:56:00
11:16 PM,39.2,33.8,81,29.72,10.0,East,10.4,-,N/A,,Overcast,100,2013-02-20 08:16:00
11:36 PM,39.2,30.2,70,29.71,10.0,ESE,16.1,23.0,N/A,,Overcast,120,2013-02-20 08:36:00
11:56 PM,39.2,30.2,70,29.71,10.0,ESE,15.0,24.2,N/A,,Overcast,120,2013-02-20 08:56:00